sensor_id;sensor_type;location;lat;lon;timestamp;temperature;humidity
7234;DHT22;3658;47.992;10.158;2023-03-15T00:00:30;20.90;35.00
7234;DHT22;3658;47.992;10.158;2023-03-15T00:02:57;20.90;35.00
7234;DHT22;3658;47.992;10.158;2023-03-15T00:05:24;20.90;34.90
7234;DHT22;3658;47.992;10.158;2023-03-15T00:07:51;20.90;34.90
7234;DHT22;3658;47.992;10.158;2023-03-15T00:10:19;20.90;34.80
7234;DHT22;3658;47.992;10.158;2023-03-15T00:12:46;20.90;34.80
7234;DHT22;3658;47.992;10.158;2023-03-15T00:15:13;20.90;34.70
7234;DHT22;3658;47.992;10.158;2023-03-15T00:17:40;20.90;34.70
7234;DHT22;3658;47.992;10.158;2023-03-15T00:20:10;20.90;34.60
7234;DHT22;3658;47.992;10.158;2023-03-15T00:22:39;20.90;34.70
7234;DHT22;3658;47.992;10.158;2023-03-15T00:25:07;20.90;34.60
7234;DHT22;3658;47.992;10.158;2023-03-15T00:27:35;20.90;34.60
7234;DHT22;3658;47.992;10.158;2023-03-15T00:30:03;20.90;34.60
7234;DHT22;3658;47.992;10.158;2023-03-15T00:32:30;20.90;34.60
7234;DHT22;3658;47.992;10.158;2023-03-15T00:34:57;20.80;34.50
7234;DHT22;3658;47.992;10.158;2023-03-15T00:37:24;20.90;34.60
7234;DHT22;3658;47.992;10.158;2023-03-15T00:39:51;20.90;34.60
7234;DHT22;3658;47.992;10.158;2023-03-15T00:42:20;20.90;34.50
7234;DHT22;3658;47.992;10.158;2023-03-15T00:44:53;20.90;34.50
7234;DHT22;3658;47.992;10.158;2023-03-15T00:47:21;20.80;34.40
7234;DHT22;3658;47.992;10.158;2023-03-15T00:49:48;20.90;34.40
7234;DHT22;3658;47.992;10.158;2023-03-15T00:52:16;20.90;34.40
7234;DHT22;3658;47.992;10.158;2023-03-15T00:54:43;20.90;34.40
7234;DHT22;3658;47.992;10.158;2023-03-15T00:57:10;20.90;34.40
7234;DHT22;3658;47.992;10.158;2023-03-15T00:59:37;20.90;34.50
7234;DHT22;3658;47.992;10.158;2023-03-15T01:02:05;20.90;34.40
7234;DHT22;3658;47.992;10.158;2023-03-15T01:04:33;20.80;34.20
7234;DHT22;3658;47.992;10.158;2023-03-15T01:07:00;20.90;34.40
7234;DHT22;3658;47.992;10.158;2023-03-15T01:09:27;20.90;34.30
7234;DHT22;3658;47.992;10.158;2023-03-15T01:11:55;20.90;34.30
7234;DHT22;3658;47.992;10.158;2023-03-15T01:14:22;20.90;34.30
7234;DHT22;3658;47.992;10.158;2023-03-15T01:16:48;20.90;34.30
7234;DHT22;3658;47.992;10.158;2023-03-15T01:19:17;20.90;34.30
7234;DHT22;3658;47.992;10.158;2023-03-15T01:21:44;20.90;34.30
7234;DHT22;3658;47.992;10.158;2023-03-15T01:24:13;20.90;34.30
7234;DHT22;3658;47.992;10.158;2023-03-15T01:26:40;20.90;34.20
7234;DHT22;3658;47.992;10.158;2023-03-15T01:29:07;20.90;34.20
7234;DHT22;3658;47.992;10.158;2023-03-15T01:31:34;20.90;34.20
7234;DHT22;3658;47.992;10.158;2023-03-15T01:34:01;20.80;34.10
7234;DHT22;3658;47.992;10.158;2023-03-15T01:36:30;20.90;34.10
7234;DHT22;3658;47.992;10.158;2023-03-15T01:38:57;20.90;34.20
7234;DHT22;3658;47.992;10.158;2023-03-15T01:41:24;20.90;34.10
7234;DHT22;3658;47.992;10.158;2023-03-15T01:43:51;20.90;34.20
7234;DHT22;3658;47.992;10.158;2023-03-15T01:46:26;20.90;34.20
7234;DHT22;3658;47.992;10.158;2023-03-15T01:48:57;20.90;34.10
7234;DHT22;3658;47.992;10.158;2023-03-15T01:51:31;20.90;34.10
7234;DHT22;3658;47.992;10.158;2023-03-15T01:54:02;20.90;34.10
7234;DHT22;3658;47.992;10.158;2023-03-15T01:56:30;20.90;34.10
7234;DHT22;3658;47.992;10.158;2023-03-15T01:59:02;20.80;34.10
7234;DHT22;3658;47.992;10.158;2023-03-15T02:01:32;20.90;34.10
7234;DHT22;3658;47.992;10.158;2023-03-15T02:04:04;20.80;33.90
7234;DHT22;3658;47.992;10.158;2023-03-15T02:06:34;20.90;34.00
7234;DHT22;3658;47.992;10.158;2023-03-15T02:09:04;20.90;34.00
7234;DHT22;3658;47.992;10.158;2023-03-15T02:11:33;20.90;34.00
7234;DHT22;3658;47.992;10.158;2023-03-15T02:14:01;20.90;34.00
7234;DHT22;3658;47.992;10.158;2023-03-15T02:16:29;20.90;34.00
7234;DHT22;3658;47.992;10.158;2023-03-15T02:18:56;20.90;33.90
7234;DHT22;3658;47.992;10.158;2023-03-15T02:21:32;20.90;33.90
7234;DHT22;3658;47.992;10.158;2023-03-15T02:24:17;20.90;34.00
7234;DHT22;3658;47.992;10.158;2023-03-15T02:26:50;20.90;34.00
7234;DHT22;3658;47.992;10.158;2023-03-15T02:29:21;20.80;33.90
7234;DHT22;3658;47.992;10.158;2023-03-15T02:31:49;20.90;33.90
7234;DHT22;3658;47.992;10.158;2023-03-15T02:34:17;20.90;33.90
7234;DHT22;3658;47.992;10.158;2023-03-15T02:36:44;20.90;34.00
7234;DHT22;3658;47.992;10.158;2023-03-15T02:39:15;20.90;33.90
7234;DHT22;3658;47.992;10.158;2023-03-15T02:41:45;20.90;33.80
7234;DHT22;3658;47.992;10.158;2023-03-15T02:44:15;20.80;33.80
7234;DHT22;3658;47.992;10.158;2023-03-15T02:46:47;20.90;33.80
7234;DHT22;3658;47.992;10.158;2023-03-15T02:49:17;20.90;33.80
7234;DHT22;3658;47.992;10.158;2023-03-15T02:51:47;20.90;33.90
7234;DHT22;3658;47.992;10.158;2023-03-15T02:54:14;20.80;33.80
7234;DHT22;3658;47.992;10.158;2023-03-15T02:56:41;20.90;33.90
7234;DHT22;3658;47.992;10.158;2023-03-15T02:59:08;20.90;33.80
7234;DHT22;3658;47.992;10.158;2023-03-15T03:01:37;20.90;33.80
7234;DHT22;3658;47.992;10.158;2023-03-15T03:04:06;20.90;33.80
7234;DHT22;3658;47.992;10.158;2023-03-15T03:06:33;20.90;33.80
7234;DHT22;3658;47.992;10.158;2023-03-15T03:09:00;20.80;33.70
7234;DHT22;3658;47.992;10.158;2023-03-15T03:11:29;20.80;33.80
7234;DHT22;3658;47.992;10.158;2023-03-15T03:13:56;20.90;33.80
7234;DHT22;3658;47.992;10.158;2023-03-15T03:16:23;20.90;33.80
7234;DHT22;3658;47.992;10.158;2023-03-15T03:18:50;20.90;33.80
7234;DHT22;3658;47.992;10.158;2023-03-15T03:21:18;20.80;33.60
7234;DHT22;3658;47.992;10.158;2023-03-15T03:23:45;20.80;33.60
7234;DHT22;3658;47.992;10.158;2023-03-15T03:26:13;20.80;33.70
7234;DHT22;3658;47.992;10.158;2023-03-15T03:28:41;20.80;33.60
7234;DHT22;3658;47.992;10.158;2023-03-15T03:31:15;20.80;33.60
7234;DHT22;3658;47.992;10.158;2023-03-15T03:33:42;20.80;33.60
7234;DHT22;3658;47.992;10.158;2023-03-15T03:36:09;20.80;33.60
7234;DHT22;3658;47.992;10.158;2023-03-15T03:38:40;20.80;33.60
7234;DHT22;3658;47.992;10.158;2023-03-15T03:41:07;20.80;33.60
7234;DHT22;3658;47.992;10.158;2023-03-15T03:43:34;20.80;33.60
7234;DHT22;3658;47.992;10.158;2023-03-15T03:46:01;20.80;33.60
7234;DHT22;3658;47.992;10.158;2023-03-15T03:48:28;20.80;33.60
7234;DHT22;3658;47.992;10.158;2023-03-15T03:50:55;20.80;33.70
7234;DHT22;3658;47.992;10.158;2023-03-15T03:53:22;20.80;33.70
7234;DHT22;3658;47.992;10.158;2023-03-15T03:55:51;20.80;33.60
7234;DHT22;3658;47.992;10.158;2023-03-15T03:58:19;20.80;33.60
7234;DHT22;3658;47.992;10.158;2023-03-15T04:00:46;20.80;33.60
7234;DHT22;3658;47.992;10.158;2023-03-15T04:03:13;20.90;33.60
7234;DHT22;3658;47.992;10.158;2023-03-15T04:05:40;20.90;33.60
7234;DHT22;3658;47.992;10.158;2023-03-15T04:08:07;20.80;33.50
7234;DHT22;3658;47.992;10.158;2023-03-15T04:10:34;20.80;33.60
7234;DHT22;3658;47.992;10.158;2023-03-15T04:13:02;20.80;33.60
7234;DHT22;3658;47.992;10.158;2023-03-15T04:15:29;20.80;34.20
7234;DHT22;3658;47.992;10.158;2023-03-15T04:17:56;20.80;33.60
7234;DHT22;3658;47.992;10.158;2023-03-15T04:20:25;20.80;33.60
7234;DHT22;3658;47.992;10.158;2023-03-15T04:22:52;20.80;33.60
7234;DHT22;3658;47.992;10.158;2023-03-15T04:25:20;20.80;33.60
7234;DHT22;3658;47.992;10.158;2023-03-15T04:27:51;20.80;33.60
7234;DHT22;3658;47.992;10.158;2023-03-15T04:30:24;20.80;33.60
7234;DHT22;3658;47.992;10.158;2023-03-15T04:32:52;20.80;33.60
7234;DHT22;3658;47.992;10.158;2023-03-15T04:35:24;20.80;33.50
7234;DHT22;3658;47.992;10.158;2023-03-15T04:37:51;20.80;33.50
7234;DHT22;3658;47.992;10.158;2023-03-15T04:40:18;20.80;33.50
7234;DHT22;3658;47.992;10.158;2023-03-15T04:42:45;20.80;33.50
7234;DHT22;3658;47.992;10.158;2023-03-15T04:45:13;20.80;33.50
7234;DHT22;3658;47.992;10.158;2023-03-15T04:47:41;20.80;33.50
7234;DHT22;3658;47.992;10.158;2023-03-15T04:50:09;20.80;33.40
7234;DHT22;3658;47.992;10.158;2023-03-15T04:52:36;20.80;33.50
7234;DHT22;3658;47.992;10.158;2023-03-15T04:55:03;20.80;33.50
7234;DHT22;3658;47.992;10.158;2023-03-15T04:57:31;20.80;33.50
7234;DHT22;3658;47.992;10.158;2023-03-15T04:59:57;20.80;33.40
7234;DHT22;3658;47.992;10.158;2023-03-15T05:02:24;20.80;33.50
7234;DHT22;3658;47.992;10.158;2023-03-15T05:04:53;20.80;33.50
7234;DHT22;3658;47.992;10.158;2023-03-15T05:07:19;20.80;33.50
7234;DHT22;3658;47.992;10.158;2023-03-15T05:09:46;20.80;33.40
7234;DHT22;3658;47.992;10.158;2023-03-15T05:12:13;20.80;33.50
7234;DHT22;3658;47.992;10.158;2023-03-15T05:14:40;20.80;33.40
7234;DHT22;3658;47.992;10.158;2023-03-15T05:17:07;20.80;33.80
7234;DHT22;3658;47.992;10.158;2023-03-15T05:19:35;20.80;34.00
7234;DHT22;3658;47.992;10.158;2023-03-15T05:22:03;20.80;34.40
7234;DHT22;3658;47.992;10.158;2023-03-15T05:24:30;20.80;34.60
7234;DHT22;3658;47.992;10.158;2023-03-15T05:26:57;20.80;34.70
7234;DHT22;3658;47.992;10.158;2023-03-15T05:29:24;20.80;34.90
7234;DHT22;3658;47.992;10.158;2023-03-15T05:31:51;20.80;35.00
7234;DHT22;3658;47.992;10.158;2023-03-15T05:34:18;20.80;35.20
7234;DHT22;3658;47.992;10.158;2023-03-15T05:36:48;20.90;35.30
7234;DHT22;3658;47.992;10.158;2023-03-15T05:39:18;20.90;35.40
7234;DHT22;3658;47.992;10.158;2023-03-15T05:41:47;20.90;35.40
7234;DHT22;3658;47.992;10.158;2023-03-15T05:44:14;20.90;35.50
7234;DHT22;3658;47.992;10.158;2023-03-15T05:46:41;20.90;35.60
7234;DHT22;3658;47.992;10.158;2023-03-15T05:49:08;20.90;35.70
7234;DHT22;3658;47.992;10.158;2023-03-15T05:51:35;20.90;35.70
7234;DHT22;3658;47.992;10.158;2023-03-15T05:54:02;20.90;35.70
7234;DHT22;3658;47.992;10.158;2023-03-15T05:56:31;20.90;35.70
7234;DHT22;3658;47.992;10.158;2023-03-15T05:58:58;20.80;35.60
7234;DHT22;3658;47.992;10.158;2023-03-15T06:01:27;20.90;35.70
7234;DHT22;3658;47.992;10.158;2023-03-15T06:03:54;20.90;35.70
7234;DHT22;3658;47.992;10.158;2023-03-15T06:06:21;20.90;35.60
7234;DHT22;3658;47.992;10.158;2023-03-15T06:08:48;20.90;35.60
7234;DHT22;3658;47.992;10.158;2023-03-15T06:11:15;20.90;35.70
7234;DHT22;3658;47.992;10.158;2023-03-15T06:13:43;20.90;35.70
7234;DHT22;3658;47.992;10.158;2023-03-15T06:16:10;20.90;35.70
7234;DHT22;3658;47.992;10.158;2023-03-15T06:18:37;20.90;35.70
7234;DHT22;3658;47.992;10.158;2023-03-15T06:21:04;20.90;35.70
7234;DHT22;3658;47.992;10.158;2023-03-15T06:23:31;20.90;35.70
7234;DHT22;3658;47.992;10.158;2023-03-15T06:25:58;20.90;35.70
7234;DHT22;3658;47.992;10.158;2023-03-15T06:28:25;20.90;35.70
7234;DHT22;3658;47.992;10.158;2023-03-15T06:30:54;20.90;35.70
7234;DHT22;3658;47.992;10.158;2023-03-15T06:33:20;20.90;35.70
7234;DHT22;3658;47.992;10.158;2023-03-15T06:35:48;20.90;35.70
7234;DHT22;3658;47.992;10.158;2023-03-15T06:38:15;20.90;35.80
7234;DHT22;3658;47.992;10.158;2023-03-15T06:40:42;20.90;35.70
7234;DHT22;3658;47.992;10.158;2023-03-15T06:43:09;20.90;35.80
7234;DHT22;3658;47.992;10.158;2023-03-15T06:45:42;20.90;35.80
7234;DHT22;3658;47.992;10.158;2023-03-15T06:48:11;20.90;35.80
7234;DHT22;3658;47.992;10.158;2023-03-15T06:50:38;20.90;35.80
7234;DHT22;3658;47.992;10.158;2023-03-15T06:53:06;20.90;35.80
7234;DHT22;3658;47.992;10.158;2023-03-15T06:55:34;20.90;35.80
7234;DHT22;3658;47.992;10.158;2023-03-15T06:58:01;20.90;35.80
7234;DHT22;3658;47.992;10.158;2023-03-15T07:00:28;20.90;35.80
7234;DHT22;3658;47.992;10.158;2023-03-15T07:02:55;20.90;36.10
7234;DHT22;3658;47.992;10.158;2023-03-15T07:05:24;20.90;36.40
7234;DHT22;3658;47.992;10.158;2023-03-15T07:07:51;21.00;36.40
7234;DHT22;3658;47.992;10.158;2023-03-15T07:10:18;21.00;36.60
7234;DHT22;3658;47.992;10.158;2023-03-15T07:12:45;21.00;36.40
7234;DHT22;3658;47.992;10.158;2023-03-15T07:15:12;21.10;36.60
7234;DHT22;3658;47.992;10.158;2023-03-15T07:17:40;21.10;36.60
7234;DHT22;3658;47.992;10.158;2023-03-15T07:20:08;21.10;36.70
7234;DHT22;3658;47.992;10.158;2023-03-15T07:22:37;21.10;36.50
7234;DHT22;3658;47.992;10.158;2023-03-15T07:25:05;21.10;36.60
7234;DHT22;3658;47.992;10.158;2023-03-15T07:27:34;21.10;36.70
7234;DHT22;3658;47.992;10.158;2023-03-15T07:30:01;21.10;36.60
7234;DHT22;3658;47.992;10.158;2023-03-15T07:32:28;21.10;36.50
7234;DHT22;3658;47.992;10.158;2023-03-15T07:34:56;21.10;36.60
7234;DHT22;3658;47.992;10.158;2023-03-15T07:37:26;21.10;36.60
7234;DHT22;3658;47.992;10.158;2023-03-15T07:39:54;21.10;36.70
7234;DHT22;3658;47.992;10.158;2023-03-15T07:42:23;21.10;36.70
7234;DHT22;3658;47.992;10.158;2023-03-15T07:44:50;21.10;36.70
7234;DHT22;3658;47.992;10.158;2023-03-15T07:47:17;21.10;36.90
7234;DHT22;3658;47.992;10.158;2023-03-15T07:49:44;21.20;37.20
7234;DHT22;3658;47.992;10.158;2023-03-15T07:52:31;21.20;37.30
7234;DHT22;3658;47.992;10.158;2023-03-15T07:54:59;21.20;37.40
7234;DHT22;3658;47.992;10.158;2023-03-15T07:57:26;21.20;37.30
7234;DHT22;3658;47.992;10.158;2023-03-15T07:59:53;21.10;37.20
7234;DHT22;3658;47.992;10.158;2023-03-15T08:02:20;21.10;37.20
7234;DHT22;3658;47.992;10.158;2023-03-15T08:04:47;21.10;37.20
7234;DHT22;3658;47.992;10.158;2023-03-15T08:07:16;21.10;37.20
7234;DHT22;3658;47.992;10.158;2023-03-15T08:09:43;21.10;37.10
7234;DHT22;3658;47.992;10.158;2023-03-15T08:12:12;21.10;37.10
7234;DHT22;3658;47.992;10.158;2023-03-15T08:14:39;21.10;37.10
7234;DHT22;3658;47.992;10.158;2023-03-15T08:17:06;21.10;37.10
7234;DHT22;3658;47.992;10.158;2023-03-15T08:19:37;21.20;37.20
7234;DHT22;3658;47.992;10.158;2023-03-15T08:22:05;21.10;37.00
7234;DHT22;3658;47.992;10.158;2023-03-15T08:24:32;21.20;37.10
7234;DHT22;3658;47.992;10.158;2023-03-15T08:26:59;21.20;37.30
7234;DHT22;3658;47.992;10.158;2023-03-15T08:29:27;21.20;37.20
7234;DHT22;3658;47.992;10.158;2023-03-15T08:31:54;21.20;37.10
7234;DHT22;3658;47.992;10.158;2023-03-15T08:34:21;21.20;37.10
7234;DHT22;3658;47.992;10.158;2023-03-15T08:36:48;21.20;37.10
7234;DHT22;3658;47.992;10.158;2023-03-15T08:39:15;21.20;37.20
7234;DHT22;3658;47.992;10.158;2023-03-15T08:41:42;21.20;37.20
7234;DHT22;3658;47.992;10.158;2023-03-15T08:44:10;21.20;37.20
7234;DHT22;3658;47.992;10.158;2023-03-15T08:46:38;21.20;37.20
7234;DHT22;3658;47.992;10.158;2023-03-15T08:49:05;21.20;37.10
7234;DHT22;3658;47.992;10.158;2023-03-15T08:51:32;21.20;37.00
7234;DHT22;3658;47.992;10.158;2023-03-15T08:53:59;21.20;37.00
7234;DHT22;3658;47.992;10.158;2023-03-15T08:56:28;21.20;36.90
7234;DHT22;3658;47.992;10.158;2023-03-15T08:58:57;21.20;36.90
7234;DHT22;3658;47.992;10.158;2023-03-15T09:01:24;21.20;36.90
7234;DHT22;3658;47.992;10.158;2023-03-15T09:03:52;21.20;36.90
7234;DHT22;3658;47.992;10.158;2023-03-15T09:06:19;21.20;36.70
7234;DHT22;3658;47.992;10.158;2023-03-15T09:08:46;21.20;37.00
7234;DHT22;3658;47.992;10.158;2023-03-15T09:11:13;21.20;37.00
7234;DHT22;3658;47.992;10.158;2023-03-15T09:13:40;21.20;37.00
7234;DHT22;3658;47.992;10.158;2023-03-15T09:16:07;21.20;37.00
7234;DHT22;3658;47.992;10.158;2023-03-15T09:18:34;21.20;37.00
7234;DHT22;3658;47.992;10.158;2023-03-15T09:21:04;21.20;36.90
7234;DHT22;3658;47.992;10.158;2023-03-15T09:23:31;21.30;37.00
7234;DHT22;3658;47.992;10.158;2023-03-15T09:25:59;21.20;37.00
7234;DHT22;3658;47.992;10.158;2023-03-15T09:28:26;21.20;37.30
7234;DHT22;3658;47.992;10.158;2023-03-15T09:30:54;21.20;37.30
7234;DHT22;3658;47.992;10.158;2023-03-15T09:33:21;21.30;37.50
7234;DHT22;3658;47.992;10.158;2023-03-15T09:35:49;21.30;37.40
7234;DHT22;3658;47.992;10.158;2023-03-15T09:38:18;21.30;37.50
7234;DHT22;3658;47.992;10.158;2023-03-15T09:40:46;21.20;37.40
7234;DHT22;3658;47.992;10.158;2023-03-15T09:43:38;21.30;37.50
7234;DHT22;3658;47.992;10.158;2023-03-15T09:46:17;21.30;37.50
7234;DHT22;3658;47.992;10.158;2023-03-15T09:48:51;21.30;37.50
7234;DHT22;3658;47.992;10.158;2023-03-15T09:51:27;21.30;37.40
7234;DHT22;3658;47.992;10.158;2023-03-15T09:54:00;21.30;37.30
7234;DHT22;3658;47.992;10.158;2023-03-15T09:56:34;21.30;37.30
7234;DHT22;3658;47.992;10.158;2023-03-15T09:59:03;21.30;37.20
7234;DHT22;3658;47.992;10.158;2023-03-15T10:01:34;21.30;37.20
7234;DHT22;3658;47.992;10.158;2023-03-15T10:04:06;21.30;37.10
7234;DHT22;3658;47.992;10.158;2023-03-15T10:06:36;21.30;37.10
7234;DHT22;3658;47.992;10.158;2023-03-15T10:09:17;21.30;37.20
7234;DHT22;3658;47.992;10.158;2023-03-15T10:11:52;21.30;37.20
7234;DHT22;3658;47.992;10.158;2023-03-15T10:14:29;21.20;37.00
7234;DHT22;3658;47.992;10.158;2023-03-15T10:16:59;21.20;37.00
7234;DHT22;3658;47.992;10.158;2023-03-15T10:19:35;21.20;37.20
7234;DHT22;3658;47.992;10.158;2023-03-15T10:22:18;21.20;37.30
7234;DHT22;3658;47.992;10.158;2023-03-15T10:24:50;21.30;37.30
7234;DHT22;3658;47.992;10.158;2023-03-15T10:27:21;21.30;37.30
7234;DHT22;3658;47.992;10.158;2023-03-15T10:29:49;21.30;37.20
7234;DHT22;3658;47.992;10.158;2023-03-15T10:32:22;21.30;37.20
7234;DHT22;3658;47.992;10.158;2023-03-15T10:34:52;21.30;37.20
7234;DHT22;3658;47.992;10.158;2023-03-15T10:37:22;21.30;37.40
7234;DHT22;3658;47.992;10.158;2023-03-15T10:39:54;21.30;37.50
7234;DHT22;3658;47.992;10.158;2023-03-15T10:42:26;21.30;37.30
7234;DHT22;3658;47.992;10.158;2023-03-15T10:44:54;21.30;37.40
7234;DHT22;3658;47.992;10.158;2023-03-15T10:47:23;21.30;37.40
7234;DHT22;3658;47.992;10.158;2023-03-15T10:49:55;21.30;37.40
7234;DHT22;3658;47.992;10.158;2023-03-15T10:52:34;21.30;37.40
7234;DHT22;3658;47.992;10.158;2023-03-15T10:55:11;21.30;37.40
7234;DHT22;3658;47.992;10.158;2023-03-15T10:57:41;21.40;37.50
7234;DHT22;3658;47.992;10.158;2023-03-15T11:00:27;21.40;37.40
7234;DHT22;3658;47.992;10.158;2023-03-15T11:03:03;21.40;37.40
7234;DHT22;3658;47.992;10.158;2023-03-15T11:05:31;21.40;37.60
7234;DHT22;3658;47.992;10.158;2023-03-15T11:08:11;21.40;37.80
7234;DHT22;3658;47.992;10.158;2023-03-15T11:10:41;21.40;37.80
7234;DHT22;3658;47.992;10.158;2023-03-15T11:13:19;21.40;37.80
7234;DHT22;3658;47.992;10.158;2023-03-15T11:15:53;21.40;37.80
7234;DHT22;3658;47.992;10.158;2023-03-15T11:18:27;21.40;37.70
7234;DHT22;3658;47.992;10.158;2023-03-15T11:20:55;21.40;37.60
7234;DHT22;3658;47.992;10.158;2023-03-15T11:23:26;21.40;37.50
7234;DHT22;3658;47.992;10.158;2023-03-15T11:25:56;21.40;37.70
7234;DHT22;3658;47.992;10.158;2023-03-15T11:28:26;21.40;37.60
7234;DHT22;3658;47.992;10.158;2023-03-15T11:30:54;21.40;37.50
7234;DHT22;3658;47.992;10.158;2023-03-15T11:33:37;21.40;37.30
7234;DHT22;3658;47.992;10.158;2023-03-15T11:36:09;21.40;37.20
7234;DHT22;3658;47.992;10.158;2023-03-15T11:38:40;21.30;37.10
7234;DHT22;3658;47.992;10.158;2023-03-15T11:41:19;21.40;37.20
7234;DHT22;3658;47.992;10.158;2023-03-15T11:43:54;21.40;37.10
7234;DHT22;3658;47.992;10.158;2023-03-15T11:46:27;21.40;37.10
7234;DHT22;3658;47.992;10.158;2023-03-15T11:49:00;21.30;37.00
7234;DHT22;3658;47.992;10.158;2023-03-15T11:51:32;21.30;37.00
7234;DHT22;3658;47.992;10.158;2023-03-15T11:54:06;21.30;37.00
7234;DHT22;3658;47.992;10.158;2023-03-15T11:56:50;21.30;37.00
7234;DHT22;3658;47.992;10.158;2023-03-15T11:59:19;21.30;37.10
7234;DHT22;3658;47.992;10.158;2023-03-15T12:01:47;21.30;37.00
7234;DHT22;3658;47.992;10.158;2023-03-15T12:04:29;21.30;37.10
7234;DHT22;3658;47.992;10.158;2023-03-15T12:07:04;21.30;37.10
7234;DHT22;3658;47.992;10.158;2023-03-15T12:09:44;21.30;37.10
7234;DHT22;3658;47.992;10.158;2023-03-15T12:12:42;21.30;37.00
7234;DHT22;3658;47.992;10.158;2023-03-15T12:15:44;21.30;37.30
7234;DHT22;3658;47.992;10.158;2023-03-15T12:18:19;21.30;36.20
7234;DHT22;3658;47.992;10.158;2023-03-15T12:21:08;21.20;34.40
7234;DHT22;3658;47.992;10.158;2023-03-15T12:23:42;21.20;33.10
7234;DHT22;3658;47.992;10.158;2023-03-15T12:26:22;21.20;32.10
7234;DHT22;3658;47.992;10.158;2023-03-15T12:29:00;21.20;31.50
7234;DHT22;3658;47.992;10.158;2023-03-15T12:31:48;21.20;30.90
7234;DHT22;3658;47.992;10.158;2023-03-15T12:34:28;21.10;30.00
7234;DHT22;3658;47.992;10.158;2023-03-15T12:36:59;21.10;29.50
7234;DHT22;3658;47.992;10.158;2023-03-15T12:39:41;21.00;29.60
7234;DHT22;3658;47.992;10.158;2023-03-15T12:42:19;21.00;29.70
7234;DHT22;3658;47.992;10.158;2023-03-15T12:45:37;21.00;29.50
7234;DHT22;3658;47.992;10.158;2023-03-15T12:48:28;21.00;29.10
7234;DHT22;3658;47.992;10.158;2023-03-15T12:51:15;21.00;28.80
7234;DHT22;3658;47.992;10.158;2023-03-15T12:54:01;21.00;28.70
7234;DHT22;3658;47.992;10.158;2023-03-15T12:56:39;21.00;28.40
7234;DHT22;3658;47.992;10.158;2023-03-15T12:59:19;21.00;28.10
7234;DHT22;3658;47.992;10.158;2023-03-15T13:01:50;21.00;28.10
7234;DHT22;3658;47.992;10.158;2023-03-15T13:04:17;20.90;27.70
7234;DHT22;3658;47.992;10.158;2023-03-15T13:06:53;21.00;28.20
7234;DHT22;3658;47.992;10.158;2023-03-15T13:12:19;20.90;28.50
7234;DHT22;3658;47.992;10.158;2023-03-15T13:14:52;20.80;26.00
7234;DHT22;3658;47.992;10.158;2023-03-15T13:17:32;20.80;26.80
7234;DHT22;3658;47.992;10.158;2023-03-15T13:20:12;20.80;26.90
7234;DHT22;3658;47.992;10.158;2023-03-15T13:22:48;20.90;27.50
7234;DHT22;3658;47.992;10.158;2023-03-15T13:25:23;20.90;28.00
7234;DHT22;3658;47.992;10.158;2023-03-15T13:27:54;21.00;28.70
7234;DHT22;3658;47.992;10.158;2023-03-15T13:30:39;21.00;29.10
7234;DHT22;3658;47.992;10.158;2023-03-15T13:33:19;21.10;29.50
7234;DHT22;3658;47.992;10.158;2023-03-15T13:35:52;21.10;29.90
7234;DHT22;3658;47.992;10.158;2023-03-15T13:38:25;21.10;30.20
7234;DHT22;3658;47.992;10.158;2023-03-15T13:40:53;21.10;30.50
7234;DHT22;3658;47.992;10.158;2023-03-15T13:43:24;21.10;30.80
7234;DHT22;3658;47.992;10.158;2023-03-15T13:45:51;21.10;31.20
7234;DHT22;3658;47.992;10.158;2023-03-15T13:48:20;21.20;31.60
7234;DHT22;3658;47.992;10.158;2023-03-15T13:50:48;21.10;31.70
7234;DHT22;3658;47.992;10.158;2023-03-15T13:53:19;21.20;32.00
7234;DHT22;3658;47.992;10.158;2023-03-15T13:55:49;21.20;32.20
7234;DHT22;3658;47.992;10.158;2023-03-15T13:58:17;21.20;32.30
7234;DHT22;3658;47.992;10.158;2023-03-15T14:00:45;21.20;32.50
7234;DHT22;3658;47.992;10.158;2023-03-15T14:03:13;21.20;32.60
7234;DHT22;3658;47.992;10.158;2023-03-15T14:05:45;21.20;32.80
7234;DHT22;3658;47.992;10.158;2023-03-15T14:08:19;21.10;32.80
7234;DHT22;3658;47.992;10.158;2023-03-15T14:11:01;21.20;32.90
7234;DHT22;3658;47.992;10.158;2023-03-15T14:13:29;21.10;32.90
7234;DHT22;3658;47.992;10.158;2023-03-15T14:16:00;21.10;33.00
7234;DHT22;3658;47.992;10.158;2023-03-15T14:18:32;21.10;33.00
7234;DHT22;3658;47.992;10.158;2023-03-15T14:21:04;21.10;33.10
7234;DHT22;3658;47.992;10.158;2023-03-15T14:23:35;21.10;33.10
7234;DHT22;3658;47.992;10.158;2023-03-15T14:26:12;21.10;33.20
7234;DHT22;3658;47.992;10.158;2023-03-15T14:28:46;21.10;33.30
7234;DHT22;3658;47.992;10.158;2023-03-15T14:31:19;21.10;33.30
7234;DHT22;3658;47.992;10.158;2023-03-15T14:33:51;21.10;33.40
7234;DHT22;3658;47.992;10.158;2023-03-15T14:36:23;21.10;33.50
7234;DHT22;3658;47.992;10.158;2023-03-15T14:38:53;21.10;33.50
7234;DHT22;3658;47.992;10.158;2023-03-15T14:41:29;21.10;33.60
7234;DHT22;3658;47.992;10.158;2023-03-15T14:43:58;21.10;33.70
7234;DHT22;3658;47.992;10.158;2023-03-15T14:46:25;21.10;33.70
7234;DHT22;3658;47.992;10.158;2023-03-15T14:48:52;21.10;33.60
7234;DHT22;3658;47.992;10.158;2023-03-15T14:51:22;21.20;33.80
7234;DHT22;3658;47.992;10.158;2023-03-15T14:53:51;21.20;33.80
7234;DHT22;3658;47.992;10.158;2023-03-15T14:56:22;21.20;33.70
7234;DHT22;3658;47.992;10.158;2023-03-15T14:58:49;21.20;33.80
7234;DHT22;3658;47.992;10.158;2023-03-15T15:01:22;21.10;33.90
7234;DHT22;3658;47.992;10.158;2023-03-15T15:03:52;21.10;33.80
7234;DHT22;3658;47.992;10.158;2023-03-15T15:06:24;21.10;33.90
7234;DHT22;3658;47.992;10.158;2023-03-15T15:08:54;21.10;33.90
7234;DHT22;3658;47.992;10.158;2023-03-15T15:11:23;21.10;34.10
7234;DHT22;3658;47.992;10.158;2023-03-15T15:13:50;21.10;34.60
7234;DHT22;3658;47.992;10.158;2023-03-15T15:16:17;21.10;34.40
7234;DHT22;3658;47.992;10.158;2023-03-15T15:18:44;21.10;34.40
7234;DHT22;3658;47.992;10.158;2023-03-15T15:21:12;21.00;34.40
7234;DHT22;3658;47.992;10.158;2023-03-15T15:23:43;21.10;34.60
7234;DHT22;3658;47.992;10.158;2023-03-15T15:26:16;21.10;34.70
7234;DHT22;3658;47.992;10.158;2023-03-15T15:28:43;21.10;34.60
7234;DHT22;3658;47.992;10.158;2023-03-15T15:31:14;21.10;34.50
7234;DHT22;3658;47.992;10.158;2023-03-15T15:33:42;21.20;34.60
7234;DHT22;3658;47.992;10.158;2023-03-15T15:36:12;21.20;34.40
7234;DHT22;3658;47.992;10.158;2023-03-15T15:38:39;21.20;34.40
7234;DHT22;3658;47.992;10.158;2023-03-15T15:41:13;21.20;34.40
7234;DHT22;3658;47.992;10.158;2023-03-15T15:43:41;21.20;34.40
7234;DHT22;3658;47.992;10.158;2023-03-15T15:46:10;21.20;34.40
7234;DHT22;3658;47.992;10.158;2023-03-15T15:48:38;21.20;34.60
7234;DHT22;3658;47.992;10.158;2023-03-15T15:51:15;21.20;34.60
7234;DHT22;3658;47.992;10.158;2023-03-15T15:53:44;21.20;34.60
7234;DHT22;3658;47.992;10.158;2023-03-15T15:56:12;21.20;34.70
7234;DHT22;3658;47.992;10.158;2023-03-15T15:58:40;21.20;34.80
7234;DHT22;3658;47.992;10.158;2023-03-15T16:01:11;21.20;34.80
7234;DHT22;3658;47.992;10.158;2023-03-15T16:03:38;21.20;34.80
7234;DHT22;3658;47.992;10.158;2023-03-15T16:06:09;21.30;34.90